Time;durP1;ratioP1;P1;durP2;ratioP2;P2;SDS_P1;SDS_P2;PMS_P1;PMS_P2;Temp;Humidity;BMP_temperature;BMP_pressure;BME280_temperature;BME280_humidity;BME280_pressure;Samples;Min_cycle;Max_cycle;Signal;HPM_P1;HPM_P2
2022/01/28 00:00:28;;;;;;;111.50;62.40;;;26.10;2201.60;;;;;;5032010;28;20125;-70
2022/01/28 00:05:22;;;;;;;117.35;63.33;;;26.20;2201.60;;;;;;5033258;28;20022;-71
2022/01/28 00:07:52;;;;;;;172.10;92.75;;;26.30;2201.60;;;;;;5031873;28;20049;-70
2022/01/28 00:10:19;;;;;;;147.85;82.30;;;26.30;2201.60;;;;;;5041150;28;20024;-70
2022/01/28 00:15:28;;;;;;;113.85;63.63;;;26.30;2201.60;;;;;;5032838;28;20480;-71
2022/01/28 00:39:31;;;;;;;116.38;64.57;;;51.20;2227.20;;;;;;5013099;28;20072;-70
2022/01/28 00:41:56;;;;;;;124.07;65.90;;;51.30;2227.20;;;;;;5012679;28;20026;-70
2022/01/28 00:44:22;;;;;;;114.35;66.25;;;51.40;2227.20;;;;;;5023260;28;20052;-70
2022/01/28 00:46:48;;;;;;;120.55;69.00;;;51.40;2227.20;;;;;;5049128;28;20033;-71
2022/01/28 00:49:14;;;;;;;127.53;67.93;;;51.40;2227.20;;;;;;5030894;28;20041;-71
2022/01/28 00:51:40;;;;;;;116.15;64.82;;;51.40;2227.20;;;;;;5032123;28;20600;-71
2022/01/28 00:54:05;;;;;;;108.95;60.38;;;51.50;2227.20;;;;;;5032758;28;20030;-71
2022/01/28 00:56:31;;;;;;;113.22;61.70;;;51.50;2227.20;;;;;;5032161;28;20030;-71
2022/01/28 00:58:57;;;;;;;112.32;65.78;;;51.40;2227.20;;;;;;5032377;28;20385;-71
2022/01/28 01:01:23;;;;;;;108.55;70.05;;;51.30;2227.20;;;;;;5032184;28;20104;-71
2022/01/28 01:03:48;;;;;;;127.35;74.32;;;51.20;2227.20;;;;;;5034565;28;20532;-71
2022/01/28 01:06:14;;;;;;;126.72;77.35;;;51.30;2227.20;;;;;;5039796;28;20396;-71
2022/01/28 01:08:40;;;;;;;135.55;84.00;;;51.40;2227.20;;;;;;5050001;28;20033;-71
2022/01/28 01:11:07;;;;;;;140.90;80.43;;;51.40;2227.20;;;;;;5051109;28;20029;-71
2022/01/28 01:13:38;;;;;;;133.70;74.57;;;51.30;2227.20;;;;;;5051762;28;20025;-72
2022/01/28 01:16:06;;;;;;;124.53;73.10;;;51.40;2227.20;;;;;;5050437;28;20029;-71
2022/01/28 01:18:44;;;;;;;117.50;68.18;;;51.40;2227.20;;;;;;5050611;28;20590;-71
2022/01/28 01:21:16;;;;;;;116.43;66.53;;;51.40;2227.20;;;;;;5051796;28;20021;-71
2022/01/28 01:23:50;;;;;;;102.03;61.38;;;51.40;2227.20;;;;;;5051938;28;20040;-71
2022/01/28 01:26:16;;;;;;;107.10;60.70;;;51.40;2227.20;;;;;;5051732;28;20013;-71
2022/01/28 01:28:42;;;;;;;118.18;65.55;;;51.40;2227.20;;;;;;5052013;28;20027;-72
2022/01/28 01:31:13;;;;;;;105.57;58.25;;;51.30;2227.20;;;;;;5050519;28;20037;-71
2022/01/28 01:33:45;;;;;;;108.88;67.55;;;51.40;2227.20;;;;;;5051853;28;20028;-71
2022/01/28 01:36:11;;;;;;;117.00;62.40;;;51.40;2227.20;;;;;;5051778;28;20037;-70
2022/01/28 01:38:39;;;;;;;114.40;61.80;;;51.40;2227.20;;;;;;5051236;28;20082;-70
2022/01/28 01:41:10;;;;;;;112.28;59.78;;;51.40;2227.20;;;;;;5051716;28;20017;-70
2022/01/28 01:54:25;;;;;;;105.13;60.85;;;51.40;2227.20;;;;;;5031035;28;20059;-71
2022/01/28 01:56:52;;;;;;;111.22;61.60;;;51.40;2227.20;;;;;;5031494;28;20415;-71
2022/01/28 01:59:18;;;;;;;106.72;57.50;;;51.40;2227.20;;;;;;5029723;28;20495;-71
2022/01/28 02:01:44;;;;;;;93.22;55.38;;;51.40;2227.20;;;;;;5031554;28;20033;-71
2022/01/28 02:04:09;;;;;;;105.65;59.33;;;51.50;2227.20;;;;;;5031255;28;20025;-71
2022/01/28 02:06:37;;;;;;;99.40;57.75;;;51.40;2227.20;;;;;;5030199;28;20438;-71
2022/01/28 02:09:07;;;;;;;96.65;55.28;;;51.60;2227.20;;;;;;5029890;28;20104;-71
2022/01/28 02:11:33;;;;;;;94.55;58.10;;;51.60;2227.20;;;;;;5031027;28;20491;-71
2022/01/28 02:13:58;;;;;;;90.05;54.38;;;51.60;2227.20;;;;;;5029721;28;20033;-71
2022/01/28 02:16:24;;;;;;;97.18;54.47;;;51.70;2227.20;;;;;;5030527;28;20033;-71
2022/01/28 02:18:50;;;;;;;92.65;53.75;;;51.70;2227.20;;;;;;5031227;28;20025;-71
2022/01/28 02:21:17;;;;;;;92.43;53.60;;;51.70;2227.20;;;;;;5029704;28;20124;-71
2022/01/28 02:23:47;;;;;;;88.97;52.95;;;51.70;2227.20;;;;;;5031224;28;20052;-71
2022/01/28 02:26:15;;;;;;;89.25;52.80;;;51.70;2227.20;;;;;;5029479;28;20025;-71
2022/01/28 02:28:44;;;;;;;91.50;53.63;;;51.70;2227.20;;;;;;5030439;28;20121;-71
2022/01/28 02:31:10;;;;;;;97.18;57.70;;;51.60;2227.20;;;;;;5030356;28;20041;-71
2022/01/28 02:33:36;;;;;;;103.57;58.28;;;51.60;2227.20;;;;;;5029236;28;20021;-72
2022/01/28 02:36:05;;;;;;;89.47;51.50;;;51.60;2227.20;;;;;;5030703;28;20045;-71
2022/01/28 02:38:31;;;;;;;97.38;53.40;;;51.60;2227.20;;;;;;5030603;28;20026;-71
2022/01/28 02:41:00;;;;;;;94.25;54.60;;;51.60;2227.20;;;;;;5030923;28;20108;-71
2022/01/28 02:43:34;;;;;;;92.40;55.63;;;51.60;2227.20;;;;;;5030666;28;20101;-71
2022/01/28 02:46:13;;;;;;;85.93;52.33;;;51.60;2227.20;;;;;;5015843;28;20026;-71
2022/01/28 02:48:42;;;;;;;102.45;55.00;;;51.60;2227.20;;;;;;5011548;28;20033;-71
2022/01/28 02:51:16;;;;;;;84.25;52.00;;;51.50;2227.20;;;;;;5009881;28;20026;-71
2022/01/28 02:56:20;;;;;;;98.15;53.65;;;51.40;2227.20;;;;;;5011506;28;20092;-71
2022/01/28 02:58:47;;;;;;;92.07;51.75;;;51.40;2227.20;;;;;;5011614;28;20073;-72
2022/01/28 03:01:15;;;;;;;94.55;55.83;;;51.30;2227.20;;;;;;5015067;28;20097;-71
2022/01/28 03:03:47;;;;;;;94.85;52.28;;;51.40;2227.20;;;;;;5013148;28;20033;-71
2022/01/28 03:06:14;;;;;;;96.13;57.17;;;51.40;2227.20;;;;;;5014670;28;20037;-71
2022/01/28 03:08:49;;;;;;;87.75;55.40;;;51.40;2227.20;;;;;;5014463;28;20025;-71
2022/01/28 03:11:41;;;;;;;98.53;54.97;;;51.40;2227.20;;;;;;5014776;28;20153;-71
2022/01/28 03:16:54;;;;;;;91.07;52.88;;;51.30;2227.20;;;;;;5033927;28;20139;-70
2022/01/28 03:19:25;;;;;;;91.25;50.00;;;51.30;2227.20;;;;;;5033592;28;20022;-70
2022/01/28 03:21:58;;;;;;;94.00;55.13;;;51.30;2227.20;;;;;;5032819;28;20473;-70
2022/01/28 03:24:27;;;;;;;102.07;57.63;;;51.30;2227.20;;;;;;5033827;28;20021;-71
2022/01/28 03:27:00;;;;;;;98.72;55.83;;;51.30;2227.20;;;;;;5033967;28;20025;-71
2022/01/28 03:29:26;;;;;;;93.03;56.40;;;51.30;2227.20;;;;;;5033488;28;20029;-70
2022/01/28 03:31:52;;;;;;;95.70;52.05;;;51.40;2227.20;;;;;;5033853;28;20033;-71
2022/01/28 03:34:18;;;;;;;84.97;51.20;;;51.50;2227.20;;;;;;5033777;28;20045;-70
2022/01/28 03:36:43;;;;;;;95.57;53.67;;;51.60;2227.20;;;;;;5039072;28;20427;-71
2022/01/28 03:39:10;;;;;;;77.78;48.40;;;51.60;2227.20;;;;;;5050560;28;20025;-71
2022/01/28 03:41:37;;;;;;;98.20;54.83;;;51.70;2227.20;;;;;;5052082;28;20028;-71
2022/01/28 03:44:03;;;;;;;108.15;58.10;;;51.80;2227.20;;;;;;5048933;28;20022;-71
2022/01/28 03:46:30;;;;;;;105.82;59.17;;;51.80;2227.20;;;;;;5042547;28;20029;-71
2022/01/28 03:48:56;;;;;;;93.53;54.33;;;51.90;2227.20;;;;;;5053765;28;20439;-70
2022/01/28 03:51:23;;;;;;;90.72;50.08;;;51.90;2227.20;;;;;;5053374;28;20021;-70
2022/01/28 03:53:49;;;;;;;77.28;42.08;;;51.90;2227.20;;;;;;5040536;28;20044;-71
2022/01/28 03:56:15;;;;;;;79.07;45.95;;;51.90;2227.20;;;;;;5034600;28;20021;-71
2022/01/28 03:58:42;;;;;;;75.93;45.45;;;51.90;2227.20;;;;;;5038064;28;20087;-71
2022/01/28 04:01:22;;;;;;;76.88;45.80;;;51.90;2227.20;;;;;;5040032;28;20407;-70
2022/01/28 04:04:13;;;;;;;110.55;64.18;;;52.00;2227.20;;;;;;5046117;28;20488;-70
2022/01/28 04:12:03;;;;;;;83.85;51.20;;;76.80;2227.20;;;;;;5052836;28;20036;-70
2022/01/28 04:17:40;;;;;;;88.78;50.10;;;76.90;2227.20;;;;;;5032887;28;20117;-71
2022/01/28 04:19:41;;;;;;;75.25;43.65;;;77.00;2227.20;;;;;;5032133;28;20029;-70
2022/01/28 04:22:06;;;;;;;69.35;38.75;;;77.00;2227.20;;;;;;5031763;28;20048;-71
2022/01/28 04:24:32;;;;;;;69.93;40.65;;;77.10;2227.20;;;;;;5032958;28;20531;-71
2022/01/28 04:26:58;;;;;;;66.25;38.03;;;77.10;2227.20;;;;;;5032794;28;20033;-70
2022/01/28 04:29:25;;;;;;;64.78;38.70;;;77.20;2227.20;;;;;;5032865;28;20048;-71
2022/01/28 04:31:50;;;;;;;63.58;38.45;;;77.30;2227.20;;;;;;5043421;28;20416;-71
2022/01/28 04:34:17;;;;;;;69.90;40.92;;;77.30;2227.20;;;;;;5052713;28;20033;-71
2022/01/28 04:37:04;;;;;;;64.13;36.35;;;77.30;2227.20;;;;;;5052623;28;20074;-71
2022/01/28 04:44:52;;;;;;;63.08;36.83;;;77.50;2227.20;;;;;;5043097;28;20040;-72
2022/01/28 04:50:12;;;;;;;58.38;35.72;;;77.60;2227.20;;;;;;5031868;28;20044;-70
2022/01/28 04:55:53;;;;;;;64.05;39.40;;;77.60;2227.20;;;;;;5031666;28;20084;-70
2022/01/28 05:01:23;;;;;;;63.95;36.47;;;77.60;2227.20;;;;;;5039209;28;20028;-70
2022/01/28 05:27:14;;;;;;;65.50;37.42;;;102.50;2227.20;;;;;;5031940;28;20051;-71
2022/01/28 05:29:39;;;;;;;63.80;37.67;;;102.50;2227.20;;;;;;5031578;28;20063;-71
2022/01/28 05:32:09;;;;;;;70.55;38.53;;;102.60;2227.20;;;;;;5030229;28;20057;-70
2022/01/28 05:34:35;;;;;;;55.67;34.63;;;102.60;2227.20;;;;;;5031298;28;20128;-70
2022/01/28 05:37:02;;;;;;;55.03;33.45;;;102.60;2227.20;;;;;;5031245;28;20080;-72
2022/01/28 05:39:27;;;;;;;70.03;35.58;;;102.60;2227.20;;;;;;5031206;28;20109;-71
2022/01/28 05:41:53;;;;;;;71.35;39.90;;;102.70;2227.20;;;;;;5041697;28;20103;-71
2022/01/28 05:44:20;;;;;;;66.60;38.72;;;102.80;2227.20;;;;;;5044779;28;20404;-71
2022/01/28 05:46:46;;;;;;;64.18;37.47;;;102.90;2227.20;;;;;;5030379;28;20042;-70
2022/01/28 05:49:13;;;;;;;65.00;37.55;;;102.90;2227.20;;;;;;5044186;28;20065;-71
2022/01/28 05:51:43;;;;;;;65.55;37.47;;;102.90;2227.20;;;;;;5040736;28;20025;-71
2022/01/28 05:54:09;;;;;;;70.03;38.88;;;103.00;2227.20;;;;;;5031234;28;20106;-71
2022/01/28 05:56:35;;;;;;;51.72;31.05;;;103.00;2227.20;;;;;;5043117;28;20037;-72
2022/01/28 05:59:02;;;;;;;51.67;30.88;;;103.00;2227.20;;;;;;5049948;28;20025;-71
2022/01/28 06:01:28;;;;;;;52.33;31.50;;;103.00;2227.20;;;;;;5042614;28;20088;-71
2022/01/28 06:03:54;;;;;;;49.80;29.90;;;103.00;2227.20;;;;;;5030157;28;20499;-71
2022/01/28 06:06:21;;;;;;;58.63;33.72;;;103.10;2227.20;;;;;;5031370;28;20034;-73
2022/01/28 06:08:51;;;;;;;64.80;36.90;;;103.10;2227.20;;;;;;5043512;28;20476;-72
2022/01/28 06:11:18;;;;;;;55.72;31.60;;;103.10;2227.20;;;;;;5045621;28;20026;-73
2022/01/28 06:13:43;;;;;;;62.05;35.33;;;103.20;2227.20;;;;;;5031627;28;20455;-72
2022/01/28 06:16:10;;;;;;;70.35;38.85;;;103.20;2227.20;;;;;;5029840;28;20029;-72
2022/01/28 06:18:37;;;;;;;68.22;38.33;;;103.20;2227.20;;;;;;5030582;28;20539;-72
2022/01/28 06:21:03;;;;;;;58.20;35.05;;;103.20;2227.20;;;;;;5031704;28;20027;-72
2022/01/28 06:23:30;;;;;;;63.90;33.67;;;103.30;2227.20;;;;;;5029179;28;20042;-72
2022/01/28 06:25:55;;;;;;;56.33;32.63;;;103.30;2227.20;;;;;;5038805;28;20424;-72
2022/01/28 06:28:21;;;;;;;54.53;32.33;;;103.30;2227.20;;;;;;5030093;28;20029;-72
2022/01/28 06:30:47;;;;;;;54.22;32.95;;;128.00;2252.80;;;;;;5030185;28;20025;-72
2022/01/28 06:33:14;;;;;;;64.43;33.88;;;128.00;2252.80;;;;;;5040928;28;20029;-72
2022/01/28 06:35:41;;;;;;;58.88;33.10;;;128.00;2252.80;;;;;;5032146;28;20037;-73
2022/01/28 06:38:10;;;;;;;60.72;33.40;;;128.00;2252.80;;;;;;5046316;28;20029;-72
2022/01/28 06:40:36;;;;;;;65.90;35.47;;;128.00;2252.80;;;;;;5054154;28;20036;-72
2022/01/28 06:43:03;;;;;;;69.45;33.95;;;128.00;2252.80;;;;;;5052612;28;20029;-73
2022/01/28 06:45:28;;;;;;;58.03;32.00;;;128.00;2252.80;;;;;;5039509;28;20083;-72
2022/01/28 06:47:54;;;;;;;53.00;31.00;;;128.00;2252.80;;;;;;5034175;28;20033;-72
2022/01/28 06:50:20;;;;;;;53.17;30.95;;;128.00;2252.80;;;;;;5034139;28;20100;-73
2022/01/28 06:52:46;;;;;;;64.80;33.03;;;128.10;2252.80;;;;;;5053364;28;20036;-72
2022/01/28 06:55:14;;;;;;;56.33;30.02;;;128.10;2252.80;;;;;;5034693;28;20465;-72
2022/01/28 06:57:40;;;;;;;50.90;30.52;;;128.10;2252.80;;;;;;5033873;28;20056;-72
2022/01/28 07:00:09;;;;;;;48.75;29.77;;;128.10;2252.80;;;;;;5033907;28;20096;-73
2022/01/28 07:02:34;;;;;;;58.28;32.28;;;128.10;2252.80;;;;;;5033914;28;20013;-74
2022/01/28 07:05:00;;;;;;;51.70;28.67;;;128.10;2252.80;;;;;;5033265;28;20136;-74
2022/01/28 07:07:27;;;;;;;58.72;32.30;;;128.10;2252.80;;;;;;5033633;28;20033;-73
2022/01/28 07:09:53;;;;;;;67.10;33.53;;;128.20;2252.80;;;;;;5039572;28;20107;-76
2022/01/28 07:12:19;;;;;;;70.15;35.65;;;128.20;2252.80;;;;;;5053594;28;20041;-75
2022/01/28 07:14:46;;;;;;;57.88;32.70;;;128.20;2252.80;;;;;;5045663;28;20070;-73
2022/01/28 07:17:12;;;;;;;55.80;34.95;;;128.20;2252.80;;;;;;5033308;28;20049;-75
2022/01/28 07:19:37;;;;;;;49.65;30.70;;;128.20;2252.80;;;;;;5033362;28;20464;-74
2022/01/28 07:22:03;;;;;;;49.42;30.27;;;128.20;2252.80;;;;;;5032439;28;20539;-73
2022/01/28 07:24:29;;;;;;;43.85;27.65;;;128.20;2252.80;;;;;;5034639;28;20099;-72
2022/01/28 07:26:56;;;;;;;44.65;27.73;;;128.20;2252.80;;;;;;5032846;28;20473;-73
2022/01/28 07:29:27;;;;;;;45.25;28.48;;;128.20;2252.80;;;;;;5034267;28;20057;-72
2022/01/28 07:31:52;;;;;;;54.60;31.63;;;128.30;2252.80;;;;;;5032898;28;20089;-74
2022/01/28 07:34:18;;;;;;;61.67;32.17;;;128.40;2252.80;;;;;;5032858;28;20112;-73
2022/01/28 07:36:44;;;;;;;48.22;31.00;;;128.40;2252.80;;;;;;5033959;28;20500;-73
2022/01/28 07:39:10;;;;;;;43.72;26.95;;;128.40;2252.80;;;;;;5032779;28;20064;-73
2022/01/28 07:41:36;;;;;;;43.05;25.63;;;128.50;2252.80;;;;;;5031880;28;20037;-73
2022/01/28 07:44:02;;;;;;;46.97;28.55;;;128.50;2252.80;;;;;;5033795;28;20024;-73
2022/01/28 07:46:28;;;;;;;46.05;27.95;;;128.50;2252.80;;;;;;5034129;28;20034;-73
2022/01/28 07:48:55;;;;;;;44.25;28.52;;;128.60;2252.80;;;;;;5033804;28;20033;-73
2022/01/28 07:51:20;;;;;;;45.38;28.10;;;128.70;2252.80;;;;;;5032052;28;20030;-74
2022/01/28 07:53:46;;;;;;;41.97;27.88;;;128.80;2252.80;;;;;;5030626;28;20124;-73
2022/01/28 07:56:13;;;;;;;38.85;25.17;;;128.80;2252.80;;;;;;5031834;28;20112;-73
2022/01/28 07:58:39;;;;;;;43.38;28.70;;;128.80;2252.80;;;;;;5045036;28;20029;-73
2022/01/28 08:01:05;;;;;;;36.67;24.63;;;128.90;2252.80;;;;;;5032803;28;20025;-74
2022/01/28 08:03:31;;;;;;;38.47;25.02;;;153.60;2252.80;;;;;;5030351;28;20125;-74
2022/01/28 08:05:56;;;;;;;44.05;25.35;;;153.70;2252.80;;;;;;5028807;28;20439;-74
2022/01/28 08:08:22;;;;;;;39.83;25.13;;;153.70;2252.80;;;;;;5013696;28;20038;-74
2022/01/28 08:10:48;;;;;;;42.40;27.05;;;153.80;2252.80;;;;;;5012163;28;20021;-74
2022/01/28 08:13:15;;;;;;;36.65;23.65;;;153.90;2252.80;;;;;;5044847;28;20496;-74
2022/01/28 08:15:44;;;;;;;33.92;23.52;;;154.10;2252.80;;;;;;5036545;28;20041;-73
2022/01/28 08:18:10;;;;;;;41.05;25.10;;;154.10;2252.80;;;;;;5046563;28;20032;-72
2022/01/28 08:20:37;;;;;;;41.58;26.25;;;154.00;2252.80;;;;;;5053118;28;20021;-74
2022/01/28 08:23:04;;;;;;;41.15;25.90;;;154.10;2252.80;;;;;;5048620;28;20032;-72
2022/01/28 08:25:33;;;;;;;44.00;29.67;;;154.10;2252.80;;;;;;5031912;28;20032;-73
2022/01/28 08:27:59;;;;;;;42.03;25.02;;;154.10;2252.80;;;;;;5033151;28;20078;-72
2022/01/28 08:30:27;;;;;;;40.10;25.17;;;154.10;2252.80;;;;;;5033209;28;20099;-72
2022/01/28 08:32:53;;;;;;;35.38;25.60;;;154.10;2252.80;;;;;;5032831;28;20033;-72
2022/01/28 08:35:27;;;;;;;44.80;25.85;;;154.10;2252.80;;;;;;5031568;28;20052;-72
2022/01/28 08:37:53;;;;;;;39.15;23.73;;;154.30;2252.80;;;;;;5032720;28;20022;-72
2022/01/28 08:40:19;;;;;;;35.30;23.98;;;154.30;2252.80;;;;;;5031545;28;20488;-72
2022/01/28 08:42:45;;;;;;;45.78;26.02;;;154.40;2252.80;;;;;;5039530;28;20465;-72
2022/01/28 08:45:10;;;;;;;35.92;23.50;;;154.40;2252.80;;;;;;5037670;28;20021;-72
2022/01/28 08:47:36;;;;;;;35.10;20.35;;;179.20;2252.80;;;;;;5031365;28;20064;-72
2022/01/28 08:50:03;;;;;;;36.17;23.38;;;179.30;2252.80;;;;;;5032977;28;20084;-72
2022/01/28 08:52:28;;;;;;;38.92;22.88;;;179.30;2252.80;;;;;;5031255;28;20427;-72
2022/01/28 08:54:54;;;;;;;33.88;22.75;;;179.50;2252.80;;;;;;5031931;28;20032;-72
2022/01/28 08:57:20;;;;;;;34.63;23.25;;;179.50;2252.80;;;;;;5032900;28;20029;-74
2022/01/28 08:59:46;;;;;;;38.13;24.23;;;179.50;2252.80;;;;;;5040607;28;20033;-72
2022/01/28 09:02:11;;;;;;;39.75;23.73;;;179.50;2252.80;;;;;;5031373;28;20028;-73
2022/01/28 09:04:37;;;;;;;34.60;22.20;;;179.50;2252.80;;;;;;5031188;28;20497;-71
2022/01/28 09:07:04;;;;;;;33.55;22.45;;;179.40;2252.80;;;;;;5032645;28;20369;-71
2022/01/28 09:09:30;;;;;;;35.17;22.88;;;179.40;2252.80;;;;;;5032205;28;20469;-72
2022/01/28 09:14:25;;;;;;;35.58;22.52;;;179.20;2252.80;;;;;;5035502;28;20456;-74
2022/01/28 09:16:52;;;;;;;35.88;23.65;;;154.40;2252.80;;;;;;5038084;28;20025;-74
2022/01/28 09:19:18;;;;;;;36.83;23.25;;;154.40;2252.80;;;;;;5039399;28;20484;-74
2022/01/28 09:21:44;;;;;;;38.28;23.63;;;154.40;2252.80;;;;;;5040594;28;20039;-73
2022/01/28 09:24:10;;;;;;;38.13;25.17;;;154.40;2252.80;;;;;;5038553;28;20056;-72
2022/01/28 09:26:36;;;;;;;39.67;23.92;;;154.30;2252.80;;;;;;5039370;28;20036;-72
2022/01/28 09:29:03;;;;;;;42.00;28.48;;;154.20;2252.80;;;;;;5041741;28;20029;-73
2022/01/28 09:31:28;;;;;;;38.55;24.58;;;154.20;2252.80;;;;;;5041711;28;20060;-71
2022/01/28 09:33:54;;;;;;;43.95;25.33;;;154.20;2252.80;;;;;;5042736;28;20076;-75
2022/01/28 09:36:20;;;;;;;36.95;23.58;;;154.20;2252.80;;;;;;5041584;28;20033;-72
2022/01/28 09:38:46;;;;;;;37.25;23.30;;;154.30;2252.80;;;;;;5041043;28;20071;-73
2022/01/28 09:41:12;;;;;;;34.83;21.90;;;154.30;2252.80;;;;;;5043653;28;20018;-74
2022/01/28 09:43:37;;;;;;;35.53;21.95;;;179.30;2252.80;;;;;;5039663;28;20104;-74
2022/01/28 09:46:04;;;;;;;33.60;21.85;;;179.70;2252.80;;;;;;5044771;28;20040;-72
2022/01/28 09:48:31;;;;;;;31.55;21.02;;;180.00;2252.80;;;;;;5040833;28;20024;-72
2022/01/28 09:51:01;;;;;;;34.17;21.75;;;204.90;2252.80;;;;;;5040455;28;20111;-72
2022/01/28 09:53:27;;;;;;;38.38;22.67;;;205.20;2252.80;;;;;;5035054;28;20108;-73
2022/01/28 09:55:53;;;;;;;35.85;22.25;;;230.40;2252.80;;;;;;5040354;28;20052;-72
2022/01/28 09:58:19;;;;;;;32.35;20.30;;;231.00;2252.80;;;;;;5038710;28;20025;-73
2022/01/28 10:00:45;;;;;;;38.45;23.83;;;231.10;2252.80;;;;;;5043317;28;20021;-72
2022/01/28 10:03:16;;;;;;;31.73;21.15;;;231.20;2252.80;;;;;;5034357;28;20402;-72
2022/01/28 10:05:50;;;;;;;29.00;19.30;;;231.20;2252.80;;;;;;5034021;28;20534;-72
2022/01/28 10:08:24;;;;;;;29.08;18.35;;;231.20;2252.80;;;;;;5039742;28;20449;-75
2022/01/28 10:11:04;;;;;;;30.88;20.52;;;231.10;2252.80;;;;;;5040344;28;20029;-73
2022/01/28 10:13:53;;;;;;;29.30;18.38;;;231.30;2252.80;;;;;;5041286;28;20033;-74
2022/01/28 10:16:20;;;;;;;33.28;19.55;;;231.20;2252.80;;;;;;5041981;28;20545;-72
2022/01/28 10:18:54;;;;;;;27.27;19.08;;;256.10;2252.80;;;;;;5035959;28;20025;-72
2022/01/28 10:21:34;;;;;;;29.15;17.17;;;256.40;2252.80;;;;;;5037711;28;20028;-71
2022/01/28 10:24:27;;;;;;;36.05;17.92;;;256.50;2252.80;;;;;;5038635;28;20028;-72
2022/01/28 10:26:59;;;;;;;27.73;18.70;;;281.70;2278.40;;;;;;5045193;28;20024;-71
2022/01/28 10:29:26;;;;;;;33.20;16.80;;;256.80;2252.80;;;;;;5043945;28;20033;-72
2022/01/28 10:31:53;;;;;;;23.20;15.65;;;256.20;2252.80;;;;;;5040158;28;20065;-72
2022/01/28 10:34:24;;;;;;;32.65;19.00;;;231.30;2252.80;;;;;;5041350;28;20175;-73
2022/01/28 10:37:06;;;;;;;25.40;17.45;;;231.10;2252.80;;;;;;5040915;28;20029;-72
2022/01/28 10:39:47;;;;;;;30.70;19.17;;;230.90;2252.80;;;;;;5043443;28;20092;-72
2022/01/28 10:42:19;;;;;;;31.52;19.65;;;230.50;2252.80;;;;;;5041300;28;20033;-72
2022/01/28 10:45:19;;;;;;;26.52;17.52;;;230.50;2252.80;;;;;;5043908;28;20049;-73
2022/01/28 10:47:51;;;;;;;27.40;19.52;;;230.50;2252.80;;;;;;5025190;28;20033;-73
2022/01/28 10:50:38;;;;;;;28.83;18.20;;;230.40;2252.80;;;;;;5043304;28;20038;-73
2022/01/28 10:53:15;;;;;;;36.80;23.92;;;230.40;2252.80;;;;;;5032982;28;20021;-72
2022/01/28 10:55:54;;;;;;;38.08;21.90;;;230.50;2252.80;;;;;;5020642;28;20075;-73
2022/01/28 10:58:22;;;;;;;34.05;21.67;;;230.50;2252.80;;;;;;5037501;28;20033;-73
2022/01/28 11:00:54;;;;;;;31.30;18.40;;;230.70;2252.80;;;;;;5039039;28;20112;-73
2022/01/28 11:03:26;;;;;;;40.22;22.98;;;230.60;2252.80;;;;;;5039766;28;20377;-73
2022/01/28 11:05:56;;;;;;;43.08;27.70;;;230.40;2252.80;;;;;;5035055;28;20033;-73
2022/01/28 11:08:25;;;;;;;38.28;23.20;;;230.50;2252.80;;;;;;5040842;28;20104;-73
2022/01/28 11:10:51;;;;;;;43.88;26.60;;;230.80;2252.80;;;;;;5028262;28;20090;-73
2022/01/28 11:13:17;;;;;;;31.02;18.48;;;230.80;2252.80;;;;;;5041988;28;20099;-74
2022/01/28 11:15:43;;;;;;;49.78;26.23;;;230.80;2252.80;;;;;;5039856;28;20476;-74
2022/01/28 11:18:10;;;;;;;37.90;23.98;;;230.80;2252.80;;;;;;5034573;28;20077;-75
2022/01/28 11:20:44;;;;;;;42.65;22.50;;;230.90;2252.80;;;;;;5015295;28;20079;-74
2022/01/28 11:23:49;;;;;;;27.27;19.33;;;230.70;2252.80;;;;;;5023958;28;20488;-75
2022/01/28 11:26:35;;;;;;;33.47;18.13;;;230.80;2252.80;;;;;;5040870;28;20033;-72
2022/01/28 11:29:17;;;;;;;31.23;18.35;;;230.90;2252.80;;;;;;5040982;28;20021;-73
2022/01/28 11:31:48;;;;;;;29.65;19.85;;;231.20;2252.80;;;;;;5043019;28;20033;-73
2022/01/28 11:34:16;;;;;;;30.75;19.38;;;231.10;2252.80;;;;;;5014168;28;20046;-73
2022/01/28 11:36:42;;;;;;;29.58;18.77;;;230.80;2252.80;;;;;;5045254;28;20033;-80
2022/01/28 11:39:20;;;;;;;33.22;19.05;;;230.70;2252.80;;;;;;5054154;28;20427;-74
2022/01/28 11:42:25;;;;;;;30.60;16.55;;;230.80;2252.80;;;;;;5049378;28;20029;-72
2022/01/28 11:44:50;;;;;;;25.90;19.50;;;256.10;2252.80;;;;;;5026164;28;20029;-72
2022/01/28 11:47:27;;;;;;;30.35;20.85;;;256.30;2252.80;;;;;;5025498;28;20088;-72
2022/01/28 11:50:02;;;;;;;25.17;15.70;;;256.20;2252.80;;;;;;4987596;28;20435;-71
2022/01/28 11:52:33;;;;;;;26.83;17.58;;;256.80;2252.80;;;;;;5028261;28;20033;-72
2022/01/28 11:55:17;;;;;;;25.95;16.58;;;281.60;2278.40;;;;;;5006859;28;20460;-72
2022/01/28 11:58:07;;;;;;;28.13;16.85;;;282.10;2278.40;;;;;;5024397;28;20037;-72
2022/01/28 12:00:34;;;;;;;25.70;15.23;;;256.70;2252.80;;;;;;5023310;28;20701;-72
2022/01/28 12:03:02;;;;;;;22.95;14.57;;;256.20;2252.80;;;;;;5018731;28;20025;-71
2022/01/28 12:05:30;;;;;;;27.95;16.98;;;231.30;2252.80;;;;;;5005489;28;20045;-71
2022/01/28 12:08:04;;;;;;;25.63;15.65;;;231.30;2252.80;;;;;;5019372;28;20061;-72
2022/01/28 12:10:33;;;;;;;22.80;15.20;;;256.00;2252.80;;;;;;5022030;28;20025;-72
2022/01/28 12:13:01;;;;;;;20.85;13.63;;;231.30;2252.80;;;;;;5002959;28;20485;-72
2022/01/28 12:15:57;;;;;;;23.40;15.07;;;256.40;2252.80;;;;;;5019950;28;20444;-72
2022/01/28 12:18:23;;;;;;;22.52;14.45;;;282.10;2278.40;;;;;;5019392;28;20033;-72
2022/01/28 12:20:49;;;;;;;22.63;15.98;;;281.90;2278.40;;;;;;5031235;28;20041;-72
2022/01/28 12:23:18;;;;;;;27.85;15.85;;;282.10;2278.40;;;;;;5042097;28;20384;-72
2022/01/28 12:25:44;;;;;;;26.75;16.58;;;282.00;2278.40;;;;;;5043259;28;20026;-71
2022/01/28 12:28:15;;;;;;;23.35;13.98;;;281.90;2278.40;;;;;;5040198;28;20083;-72
2022/01/28 12:30:46;;;;;;;26.33;15.63;;;307.30;2304.00;;;;;;5039246;28;20025;-71
2022/01/28 12:33:13;;;;;;;23.38;17.27;;;307.90;2304.00;;;;;;5036642;28;20033;-71
2022/01/28 12:35:41;;;;;;;26.20;16.75;;;308.00;2304.00;;;;;;5037690;28;20461;-72
2022/01/28 12:38:08;;;;;;;24.67;15.95;;;332.80;2329.60;;;;;;5040265;28;20083;-71
2022/01/28 12:40:40;;;;;;;28.35;17.30;;;308.00;2304.00;;;;;;5033602;28;20029;-71
2022/01/28 12:43:07;;;;;;;27.88;18.60;;;333.20;2329.60;;;;;;5035215;28;20045;-71
2022/01/28 12:45:33;;;;;;;23.30;15.23;;;307.70;2304.00;;;;;;5037143;28;20022;-72
2022/01/28 12:47:59;;;;;;;22.60;14.50;;;282.30;2278.40;;;;;;5033689;28;20034;-74
2022/01/28 12:50:26;;;;;;;26.85;15.25;;;281.80;2278.40;;;;;;5027618;28;20056;-72
2022/01/28 12:52:51;;;;;;;21.33;12.93;;;256.60;2252.80;;;;;;5025890;28;20022;-73
2022/01/28 12:55:17;;;;;;;14.73;9.73;;;256.90;2252.80;;;;;;5023605;28;20092;-72
2022/01/28 12:57:45;;;;;;;14.20;7.15;;;282.50;2278.40;;;;;;5034414;28;20025;-74
2022/01/28 13:00:12;;;;;;;9.23;5.90;;;307.70;2304.00;;;;;;5039182;28;20048;-71
2022/01/28 13:02:40;;;;;;;15.48;6.85;;;307.90;2278.40;;;;;;5042601;28;20025;-71
2022/01/28 13:10:20;;;;;;;12.32;5.57;;;332.90;2227.20;;;;;;5032008;28;20036;-73
2022/01/28 13:12:47;;;;;;;11.63;5.07;;;307.20;2304.00;;;;;;5037408;28;20021;-73
2022/01/28 13:15:14;;;;;;;11.38;6.68;;;281.80;2278.40;;;;;;5040203;28;20108;-74
2022/01/28 13:17:52;;;;;;;13.40;4.50;;;256.80;2252.80;;;;;;5035493;28;20484;-74
2022/01/28 13:20:18;;;;;;;17.15;5.32;;;281.60;2278.40;;;;;;5034537;28;20029;-72
2022/01/28 13:22:49;;;;;;;9.13;5.78;;;282.10;2278.40;;;;;;5039365;28;20017;-75
2022/01/28 13:25:29;;;;;;;11.65;6.18;;;281.80;2278.40;;;;;;5021126;28;20029;-71
2022/01/28 13:28:02;;;;;;;12.82;6.47;;;282.00;2278.40;;;;;;5040805;28;20419;-71
2022/01/28 13:30:37;;;;;;;12.77;6.20;;;307.20;2304.00;;;;;;5036919;28;20480;-72
2022/01/28 13:33:05;;;;;;;10.70;5.15;;;307.70;2304.00;;;;;;5036323;28;20064;-71
2022/01/28 13:35:33;;;;;;;15.02;6.15;;;282.20;2278.40;;;;;;5040937;28;20056;-72
2022/01/28 13:38:05;;;;;;;10.88;6.65;;;281.70;2278.40;;;;;;5043024;28;20029;-69
2022/01/28 13:40:35;;;;;;;12.13;6.38;;;256.90;2252.80;;;;;;5040995;28;20017;-71
2022/01/28 13:43:09;;;;;;;11.43;5.55;;;281.60;2278.40;;;;;;5039570;28;20874;-72
2022/01/28 13:45:43;;;;;;;8.57;5.18;;;281.90;2278.40;;;;;;5035558;28;20026;-71